Terminal Aerodrome Forecast
Issued by NWS Wilmington, OH

Current Version | Previous Version | Graphics & Text | Print | Product List | Glossary On
Versions: 1 2 3 4 5 6 7 8 9 10 11 12 13 14 15 16 17 18 19 20 21 22 23 24 25 26 27 28 29 30 31
149
FTUS41 KILN 221455 AAA
TAFCVG
TAF AMD
KCVG 221455Z 2215/2318 20007KT P6SM OVC250
     FM221700 20010KT P6SM SCT050 OVC250
     FM222200 19011KT P6SM VCSH OVC050
     FM230000 17010KT 6SM SHRA BR OVC030
     FM230200 17010KT 5SM SHRA BR OVC018
     FM230400 19011KT P6SM OVC012
     FM230900 21009KT 4SM SHRA BR OVC012
     FM231200 21010KT 3SM SHRA BR OVC008=

USA.gov is the U.S. government's official web portal to all federal, state and local government web resources and services.